createdAt,value
2023-05-23T00:00:52.235Z,6.77
2023-05-23T00:03:23.042Z,12.53
2023-05-23T00:05:51.324Z,10.23
2023-05-23T00:08:18.420Z,9.50
2023-05-23T00:10:45.845Z,12.07
2023-05-23T00:13:15.382Z,13.27
2023-05-23T00:15:42.859Z,7.50
2023-05-23T00:18:11.316Z,7.53
2023-05-23T00:20:40.963Z,11.07
2023-05-23T00:23:09.987Z,9.67
2023-05-23T00:25:37.759Z,7.03
2023-05-23T00:28:05.728Z,9.03
2023-05-23T00:30:34.055Z,9.77
2023-05-23T00:33:01.430Z,14.73
2023-05-23T00:35:28.188Z,7.77
2023-05-23T00:37:55.707Z,7.53
2023-05-23T00:40:23.239Z,6.13
2023-05-23T00:42:50.015Z,6.13
2023-05-23T00:45:17.271Z,12.17
2023-05-23T00:47:44.953Z,17.30
2023-05-23T00:50:12.858Z,7.10
2023-05-23T00:52:39.720Z,9.33
2023-05-23T00:55:08.660Z,8.93
2023-05-23T00:57:39.797Z,7.30
2023-05-23T01:00:10.575Z,6.20
2023-05-23T01:02:44.813Z,7.77
2023-05-23T01:05:14.564Z,7.37
2023-05-23T01:07:41.887Z,7.73
2023-05-23T01:10:09.923Z,7.53
2023-05-23T01:12:55.239Z,7.93
2023-05-23T01:15:26.135Z,7.73
2023-05-23T01:18:20.048Z,10.50
2023-05-23T01:20:54.290Z,7.07
2023-05-23T01:23:36.226Z,8.93
2023-05-23T01:26:19.889Z,6.97
2023-05-23T01:28:48.930Z,7.60
2023-05-23T01:31:17.200Z,10.50
2023-05-23T01:33:44.338Z,11.90
2023-05-23T01:36:13.554Z,8.27
2023-05-23T01:38:40.461Z,9.70
2023-05-23T01:41:07.322Z,9.27
2023-05-23T01:43:34.248Z,15.00
2023-05-23T01:46:01.164Z,11.93
2023-05-23T01:48:29.265Z,9.10
2023-05-23T01:50:57.341Z,7.60
2023-05-23T01:53:24.854Z,13.67
2023-05-23T01:55:52.482Z,13.23
2023-05-23T01:58:19.534Z,8.03
2023-05-23T02:00:46.611Z,10.10
2023-05-23T02:03:13.621Z,6.30
2023-05-23T02:05:40.821Z,10.13
2023-05-23T02:08:07.689Z,10.40
2023-05-23T02:10:34.483Z,10.97
2023-05-23T02:13:01.313Z,12.03
2023-05-23T02:15:28.245Z,9.40
2023-05-23T02:17:55.071Z,13.43
2023-05-23T02:20:21.928Z,13.37
2023-05-23T02:22:48.766Z,7.10
2023-05-23T02:25:15.980Z,10.80
2023-05-23T02:27:42.739Z,5.70
2023-05-23T02:30:09.992Z,13.30
2023-05-23T02:32:37.944Z,10.47
2023-05-23T02:35:06.342Z,9.93
2023-05-23T02:37:33.116Z,7.53
2023-05-23T02:39:59.929Z,10.30
2023-05-23T02:42:26.729Z,9.10
2023-05-23T02:44:53.464Z,10.50
2023-05-23T02:47:20.316Z,10.40
2023-05-23T02:49:47.096Z,13.83
2023-05-23T02:52:14.184Z,25.10
2023-05-23T02:54:41.244Z,7.20
2023-05-23T02:57:08.097Z,8.40
2023-05-23T02:59:34.882Z,15.00
2023-05-23T03:02:01.629Z,13.37
2023-05-23T03:04:29.764Z,11.40
2023-05-23T03:06:56.731Z,7.73
2023-05-23T03:09:23.549Z,11.23
2023-05-23T03:11:51.310Z,14.17
2023-05-23T03:14:18.364Z,16.33
2023-05-23T03:16:45.628Z,8.20
2023-05-23T03:19:12.580Z,8.07
2023-05-23T03:21:39.471Z,9.57
2023-05-23T03:24:07.035Z,6.63
2023-05-23T03:26:33.900Z,9.17
2023-05-23T03:29:00.978Z,15.63
2023-05-23T03:31:27.732Z,8.40
2023-05-23T03:33:54.550Z,11.27
2023-05-23T03:36:22.071Z,11.30
2023-05-23T03:38:48.948Z,8.80
2023-05-23T03:41:15.859Z,17.50
2023-05-23T03:43:42.901Z,23.93
2023-05-23T03:46:09.781Z,20.90
2023-05-23T03:48:36.993Z,12.40
2023-05-23T03:51:03.924Z,13.07
2023-05-23T03:53:30.843Z,11.73
2023-05-23T03:55:57.649Z,12.60
2023-05-23T03:58:24.388Z,13.17
2023-05-23T04:00:53.277Z,15.60
2023-05-23T04:03:20.725Z,7.87
2023-05-23T04:05:47.699Z,8.20
2023-05-23T04:08:14.724Z,11.60
2023-05-23T04:10:41.490Z,10.03
2023-05-23T04:13:09.783Z,9.70
2023-05-23T04:15:36.647Z,8.80
2023-05-23T04:18:03.855Z,8.60
2023-05-23T04:20:30.868Z,10.30
2023-05-23T04:22:57.622Z,10.17
2023-05-23T04:25:24.467Z,10.30
2023-05-23T04:27:51.317Z,15.60
2023-05-23T04:30:18.446Z,7.57
2023-05-23T04:32:45.307Z,10.30
2023-05-23T04:35:14.271Z,9.43
2023-05-23T04:37:42.779Z,8.50
2023-05-23T04:40:09.896Z,8.27
2023-05-23T04:42:36.646Z,31.33
2023-05-23T04:45:04.221Z,19.03
2023-05-23T04:47:37.105Z,49.00
2023-05-23T04:50:05.725Z,34.03
2023-05-23T04:52:34.301Z,22.03
2023-05-23T04:55:01.552Z,13.40
2023-05-23T04:57:29.000Z,22.27
2023-05-23T04:59:57.274Z,41.57
2023-05-23T05:02:24.241Z,176.67
2023-05-23T05:04:51.530Z,97.07
2023-05-23T05:07:18.512Z,36.80
2023-05-23T05:09:45.373Z,31.43
2023-05-23T05:12:12.226Z,29.97
2023-05-23T05:14:39.060Z,25.90
2023-05-23T05:17:05.972Z,15.53
2023-05-23T05:19:33.211Z,16.53
2023-05-23T05:22:00.400Z,20.90
2023-05-23T05:24:28.001Z,25.77
2023-05-23T05:26:55.432Z,16.20
2023-05-23T05:29:22.449Z,17.97
2023-05-23T05:31:49.295Z,25.40
2023-05-23T05:34:16.287Z,26.83
2023-05-23T05:36:46.176Z,20.13
2023-05-23T05:39:14.102Z,17.23
2023-05-23T05:41:41.217Z,17.53
2023-05-23T05:44:08.861Z,19.97
2023-05-23T05:46:35.900Z,14.87
2023-05-23T05:49:02.776Z,12.93
2023-05-23T05:51:29.755Z,23.10
2023-05-23T05:53:56.761Z,13.60
2023-05-23T05:56:23.567Z,15.47
2023-05-23T05:58:50.458Z,18.50
2023-05-23T06:01:17.511Z,17.23
2023-05-23T06:03:44.829Z,9.57
2023-05-23T06:06:12.139Z,15.93
2023-05-23T06:08:39.126Z,9.77
2023-05-23T06:11:05.985Z,10.80
2023-05-23T06:13:32.886Z,13.87
2023-05-23T06:16:00.104Z,13.10
2023-05-23T06:18:27.056Z,13.40
2023-05-23T06:20:53.907Z,9.87
2023-05-23T06:23:20.836Z,13.70
2023-05-23T06:25:47.663Z,13.20
2023-05-23T06:28:14.502Z,10.43
2023-05-23T06:30:41.534Z,12.23
2023-05-23T06:33:08.960Z,11.70
2023-05-23T06:35:35.998Z,11.07
2023-05-23T06:38:03.357Z,13.17
2023-05-23T06:40:30.169Z,12.30
2023-05-23T06:42:57.026Z,13.67
2023-05-23T06:45:23.831Z,13.40
2023-05-23T06:47:50.689Z,10.37
2023-05-23T06:50:20.209Z,9.17
2023-05-23T06:52:47.310Z,14.03
2023-05-23T06:55:18.411Z,10.50
2023-05-23T06:57:45.565Z,19.87
2023-05-23T07:00:14.056Z,13.60
2023-05-23T07:02:41.132Z,13.17
2023-05-23T07:05:08.347Z,15.27
2023-05-23T07:07:35.231Z,12.73
2023-05-23T07:10:02.122Z,14.37
2023-05-23T07:12:29.004Z,12.33
2023-05-23T07:14:55.773Z,12.47
2023-05-23T07:17:22.947Z,11.90
2023-05-23T07:19:49.956Z,8.80
2023-05-23T07:22:16.808Z,12.30
2023-05-23T07:24:43.651Z,18.50
2023-05-23T07:27:10.512Z,13.33
2023-05-23T07:29:37.355Z,20.13
2023-05-23T07:32:04.172Z,10.63
2023-05-23T07:34:31.404Z,10.57
2023-05-23T07:36:58.355Z,10.63
2023-05-23T07:39:25.983Z,13.13
2023-05-23T07:41:53.911Z,11.67
2023-05-23T07:44:23.972Z,14.50
2023-05-23T07:46:51.796Z,15.07
2023-05-23T07:49:18.851Z,15.90
2023-05-23T07:51:45.775Z,6.70
2023-05-23T07:54:14.524Z,10.17
2023-05-23T07:56:43.621Z,10.73
2023-05-23T07:59:10.396Z,18.70
2023-05-23T08:01:37.643Z,9.37
2023-05-23T08:04:04.643Z,10.70
2023-05-23T08:06:32.082Z,9.33
2023-05-23T08:08:58.956Z,9.03
2023-05-23T08:11:27.631Z,8.90
2023-05-23T08:13:54.540Z,10.70
2023-05-23T08:16:21.784Z,10.70
2023-05-23T08:18:48.760Z,12.43
2023-05-23T08:21:15.603Z,9.33
2023-05-23T08:23:42.391Z,7.27
2023-05-23T08:26:09.144Z,11.83
2023-05-23T08:28:36.019Z,10.47
2023-05-23T08:31:02.856Z,14.17
2023-05-23T08:33:29.708Z,13.30
2023-05-23T08:35:56.635Z,7.13
2023-05-23T08:38:24.264Z,10.97
2023-05-23T08:40:54.802Z,9.40
2023-05-23T08:43:21.663Z,7.67
2023-05-23T08:45:50.201Z,12.20
2023-05-23T08:48:17.271Z,8.37
2023-05-23T08:50:47.709Z,10.43
2023-05-23T08:53:20.556Z,10.30
2023-05-23T08:55:55.858Z,10.37
2023-05-23T08:58:24.959Z,20.73
2023-05-23T09:00:53.864Z,11.43
2023-05-23T09:03:21.259Z,10.53
2023-05-23T09:05:49.959Z,7.93
2023-05-23T09:08:17.040Z,15.73
2023-05-23T09:10:43.869Z,8.73
2023-05-23T09:13:10.688Z,12.77
2023-05-23T09:15:37.820Z,12.80
2023-05-23T09:18:04.720Z,12.47
2023-05-23T09:20:31.759Z,10.90
2023-05-23T09:22:58.562Z,9.97
2023-05-23T09:25:25.503Z,11.77
2023-05-23T09:27:54.552Z,17.13
2023-05-23T09:30:21.392Z,14.07
2023-05-23T09:33:01.413Z,12.83
2023-05-23T09:35:30.863Z,11.97
2023-05-23T09:37:59.503Z,8.80
2023-05-23T09:40:33.356Z,13.13
2023-05-23T09:43:04.545Z,9.13
2023-05-23T09:45:32.351Z,8.90
2023-05-23T09:47:59.188Z,11.67
2023-05-23T09:50:32.202Z,11.07
2023-05-23T09:52:59.692Z,9.70
2023-05-23T09:55:26.586Z,8.83
2023-05-23T09:57:56.862Z,12.50
2023-05-23T10:00:25.168Z,9.90
2023-05-23T10:03:11.135Z,15.50
2023-05-23T10:05:48.499Z,18.50
2023-05-23T10:08:20.054Z,13.00
2023-05-23T10:11:21.891Z,10.50
2023-05-23T10:13:50.397Z,10.57
2023-05-23T10:16:37.996Z,8.53
2023-05-23T10:19:19.368Z,12.67
2023-05-23T10:21:51.477Z,11.27
2023-05-23T10:24:19.162Z,11.70
2023-05-23T10:26:47.137Z,11.73
2023-05-23T10:29:14.019Z,9.80
2023-05-23T10:31:41.125Z,13.00
2023-05-23T10:34:55.065Z,13.07
2023-05-23T10:37:47.452Z,13.00
2023-05-23T10:40:22.215Z,18.27
2023-05-23T10:43:07.347Z,13.13
2023-05-23T10:45:42.753Z,8.13
2023-05-23T10:48:28.403Z,7.47
2023-05-23T10:51:08.642Z,9.10
2023-05-23T10:53:39.999Z,9.17
2023-05-23T10:56:08.759Z,8.20
2023-05-23T10:58:41.525Z,9.40
2023-05-23T11:01:09.956Z,9.17
2023-05-23T11:03:50.613Z,6.37
2023-05-23T11:06:38.992Z,8.20
2023-05-23T11:09:09.692Z,10.33
2023-05-23T11:11:52.474Z,8.07
2023-05-23T11:14:34.646Z,9.20
2023-05-23T11:17:16.981Z,9.53
2023-05-23T11:20:17.195Z,11.20
2023-05-23T11:22:53.791Z,8.73
2023-05-23T11:25:20.629Z,7.40
2023-05-23T11:27:48.444Z,8.00
2023-05-23T11:30:17.407Z,13.67
2023-05-23T11:32:56.064Z,7.30
2023-05-23T11:35:23.317Z,10.17
2023-05-23T11:37:50.347Z,6.17
2023-05-23T11:40:39.228Z,9.93
2023-05-23T11:43:11.584Z,9.97
2023-05-23T11:45:39.276Z,7.43
2023-05-23T11:48:12.061Z,7.93
2023-05-23T11:50:50.285Z,15.47
2023-05-23T11:53:20.716Z,12.70
2023-05-23T11:56:00.352Z,13.00
2023-05-23T11:58:30.066Z,11.93
2023-05-23T12:01:02.402Z,10.30
2023-05-23T12:03:29.814Z,6.10
2023-05-23T12:05:56.819Z,9.10
2023-05-23T12:08:23.829Z,7.20
2023-05-23T12:10:52.889Z,8.30
2023-05-23T12:13:20.597Z,8.00
2023-05-23T12:15:47.948Z,6.40
2023-05-23T12:18:20.071Z,7.77
2023-05-23T12:20:50.276Z,8.67
2023-05-23T12:23:23.424Z,7.70
2023-05-23T12:25:52.099Z,11.50
2023-05-23T12:28:19.451Z,6.10
2023-05-23T12:30:46.280Z,6.93
2023-05-23T12:33:13.652Z,13.60
2023-05-23T12:35:45.201Z,6.07
2023-05-23T12:38:16.530Z,7.47
2023-05-23T12:40:43.825Z,7.20
2023-05-23T12:43:11.349Z,5.80
2023-05-23T12:45:38.552Z,6.50
2023-05-23T12:48:08.873Z,9.03
2023-05-23T12:50:36.348Z,10.87
2023-05-23T12:53:03.321Z,6.67
2023-05-23T12:55:30.141Z,8.30
2023-05-23T12:57:56.916Z,8.40
2023-05-23T13:00:23.782Z,8.30
2023-05-23T13:02:50.729Z,7.63
2023-05-23T13:05:17.702Z,6.63
2023-05-23T13:07:44.582Z,8.47
2023-05-23T13:10:11.585Z,6.57
2023-05-23T13:12:38.568Z,8.60
2023-05-23T13:15:06.618Z,12.13
2023-05-23T13:17:33.834Z,5.50
2023-05-23T13:20:01.304Z,5.20
2023-05-23T13:22:29.193Z,6.10
2023-05-23T13:24:56.122Z,5.50
2023-05-23T13:27:22.880Z,10.60
2023-05-23T13:29:49.754Z,8.20
2023-05-23T13:32:16.581Z,7.43
2023-05-23T13:34:43.468Z,5.70
2023-05-23T13:37:10.291Z,4.93
2023-05-23T13:39:37.033Z,9.27
2023-05-23T13:42:03.941Z,9.80
2023-05-23T13:44:30.927Z,9.27
2023-05-23T13:46:58.861Z,5.23
2023-05-23T13:49:25.888Z,5.37
2023-05-23T13:51:52.659Z,5.37
2023-05-23T13:54:19.405Z,6.40
2023-05-23T13:56:46.664Z,5.77
2023-05-23T13:59:13.482Z,6.50
2023-05-23T14:01:40.245Z,6.40
2023-05-23T14:04:07.385Z,8.00
2023-05-23T14:06:34.314Z,5.50
2023-05-23T14:09:01.548Z,6.53
2023-05-23T14:11:28.593Z,5.77
2023-05-23T14:13:58.115Z,5.40
2023-05-23T14:16:24.980Z,4.40
2023-05-23T14:18:51.886Z,9.03
2023-05-23T14:21:18.763Z,4.80
2023-05-23T14:23:45.629Z,5.87
2023-05-23T14:26:12.564Z,3.17
2023-05-23T14:28:39.365Z,3.50
2023-05-23T14:31:06.270Z,3.20
2023-05-23T14:33:33.256Z,5.37
2023-05-23T14:36:00.124Z,8.10
2023-05-23T14:38:27.424Z,3.50
2023-05-23T14:40:54.873Z,3.63
2023-05-23T14:43:21.901Z,6.00
2023-05-23T14:45:48.733Z,6.77
2023-05-23T14:48:15.679Z,4.33
2023-05-23T14:50:42.744Z,4.17
2023-05-23T14:53:09.631Z,6.77
2023-05-23T14:55:36.427Z,4.53
2023-05-23T14:58:03.818Z,7.17
2023-05-23T15:00:30.642Z,4.60
2023-05-23T15:02:57.446Z,11.97
2023-05-23T15:05:25.199Z,6.60
2023-05-23T15:07:51.992Z,6.00
2023-05-23T15:10:18.940Z,3.90
2023-05-23T15:12:45.664Z,5.90
2023-05-23T15:15:12.492Z,10.73
2023-05-23T15:17:39.346Z,6.10
2023-05-23T15:20:07.777Z,3.93
2023-05-23T15:22:39.366Z,6.70
2023-05-23T15:25:07.790Z,5.53
2023-05-23T15:27:34.624Z,4.60
2023-05-23T15:30:01.718Z,4.43
2023-05-23T15:32:28.513Z,4.93
2023-05-23T15:34:55.460Z,8.90
2023-05-23T15:37:22.247Z,5.90
2023-05-23T15:39:49.511Z,7.57
2023-05-23T15:42:16.535Z,10.93
2023-05-23T15:44:43.416Z,5.77
2023-05-23T15:47:10.354Z,6.53
2023-05-23T15:49:37.069Z,5.20
2023-05-23T15:52:04.174Z,6.00
2023-05-23T15:54:30.971Z,6.63
2023-05-23T15:56:57.782Z,5.30
2023-05-23T15:59:24.683Z,10.30
2023-05-23T16:01:51.536Z,12.43
2023-05-23T16:04:18.442Z,8.00
2023-05-23T16:06:45.219Z,9.47
2023-05-23T16:09:12.169Z,5.30
2023-05-23T16:11:38.891Z,7.27
2023-05-23T16:14:06.369Z,6.50
2023-05-23T16:16:33.259Z,20.43
2023-05-23T16:19:00.239Z,5.57
2023-05-23T16:21:27.041Z,5.60
2023-05-23T16:23:53.885Z,5.67
2023-05-23T16:26:21.104Z,5.90
2023-05-23T16:28:48.000Z,8.73
2023-05-23T16:31:16.796Z,6.00
2023-05-23T16:33:44.627Z,6.23
2023-05-23T16:36:11.446Z,7.30
2023-05-23T16:38:38.212Z,7.77
2023-05-23T16:41:05.165Z,6.13
2023-05-23T16:43:32.022Z,5.20
2023-05-23T16:45:58.848Z,4.63
2023-05-23T16:48:25.887Z,7.50
2023-05-23T16:50:57.356Z,7.60
2023-05-23T16:53:24.265Z,5.67
2023-05-23T16:55:51.083Z,6.87
2023-05-23T16:58:20.177Z,6.40
2023-05-23T17:00:48.174Z,8.00
2023-05-23T17:03:15.033Z,4.50
2023-05-23T17:05:42.154Z,10.53
2023-05-23T17:08:09.291Z,10.30
2023-05-23T17:10:36.985Z,7.13
2023-05-23T17:13:03.833Z,6.80
2023-05-23T17:15:30.820Z,8.33
2023-05-23T17:17:57.705Z,16.37
2023-05-23T17:20:27.128Z,6.03
2023-05-23T17:22:54.039Z,9.27
2023-05-23T17:25:21.086Z,8.47
2023-05-23T17:27:47.956Z,15.23
2023-05-23T17:30:18.493Z,7.87
2023-05-23T17:32:46.753Z,7.67
2023-05-23T17:35:13.834Z,8.50
2023-05-23T17:37:43.778Z,18.43
2023-05-23T17:40:14.137Z,14.87
2023-05-23T17:42:41.767Z,13.87
2023-05-23T17:45:12.327Z,11.50
2023-05-23T17:47:39.497Z,12.43
2023-05-23T17:50:07.647Z,16.23
2023-05-23T17:52:35.058Z,19.57
2023-05-23T17:55:02.139Z,11.83
2023-05-23T17:57:31.171Z,12.77
2023-05-23T17:59:59.549Z,14.30
2023-05-23T18:02:27.348Z,9.73
2023-05-23T18:04:55.101Z,10.77
2023-05-23T18:07:22.540Z,9.80
2023-05-23T18:09:50.368Z,13.27
2023-05-23T18:12:17.868Z,13.73
2023-05-23T18:14:45.711Z,14.23
2023-05-23T18:17:13.024Z,9.00
2023-05-23T18:19:40.110Z,6.47
2023-05-23T18:22:06.965Z,10.20
2023-05-23T18:24:33.751Z,6.80
2023-05-23T18:27:00.884Z,8.83
2023-05-23T18:29:27.678Z,10.40
2023-05-23T18:31:54.553Z,10.70
2023-05-23T18:34:21.808Z,15.40
2023-05-23T18:36:48.721Z,15.23
2023-05-23T18:39:16.571Z,28.40
2023-05-23T18:41:43.369Z,13.80
2023-05-23T18:44:10.128Z,11.87
2023-05-23T18:46:37.293Z,12.10
2023-05-23T18:49:05.186Z,9.93
2023-05-23T18:51:33.586Z,15.40
2023-05-23T18:54:00.444Z,8.93
2023-05-23T18:56:27.601Z,8.63
2023-05-23T18:58:54.472Z,17.77
2023-05-23T19:01:21.649Z,13.83
2023-05-23T19:03:49.281Z,9.83
2023-05-23T19:06:16.748Z,10.93
2023-05-23T19:08:43.575Z,10.33
2023-05-23T19:11:10.958Z,6.60
2023-05-23T19:13:38.162Z,14.10
2023-05-23T19:16:05.287Z,7.60
2023-05-23T19:18:32.308Z,9.03
2023-05-23T19:20:59.137Z,11.90
2023-05-23T19:23:26.194Z,9.53
2023-05-23T19:25:52.990Z,9.63
2023-05-23T19:28:19.815Z,11.20
2023-05-23T19:30:46.560Z,9.33
2023-05-23T19:33:14.778Z,10.00
2023-05-23T19:35:43.750Z,12.07
2023-05-23T19:38:11.221Z,7.60
2023-05-23T19:40:38.025Z,5.77
2023-05-23T19:43:04.808Z,10.90
2023-05-23T19:45:31.761Z,6.93
2023-05-23T19:47:58.630Z,8.63
2023-05-23T19:50:25.585Z,6.13
2023-05-23T19:52:52.538Z,5.60
2023-05-23T19:55:19.734Z,6.60
2023-05-23T19:57:46.691Z,8.10
2023-05-23T20:00:15.097Z,5.10
2023-05-23T20:02:42.842Z,11.00
2023-05-23T20:05:09.975Z,7.70
2023-05-23T20:07:36.768Z,5.83
2023-05-23T20:10:04.236Z,6.33
2023-05-23T20:12:31.078Z,5.57
2023-05-23T20:14:57.932Z,5.40
2023-05-23T20:17:24.705Z,6.60
2023-05-23T20:19:51.529Z,10.60
2023-05-23T20:22:18.350Z,11.30
2023-05-23T20:24:45.062Z,9.20
2023-05-23T20:27:11.870Z,6.23
2023-05-23T20:29:38.550Z,8.00
2023-05-23T20:32:06.121Z,5.90
2023-05-23T20:34:32.913Z,9.00
2023-05-23T20:36:59.662Z,7.60
2023-05-23T20:39:26.371Z,10.50
2023-05-23T20:41:53.796Z,5.37
2023-05-23T20:44:20.543Z,16.80
2023-05-23T20:46:47.660Z,6.83
2023-05-23T20:49:15.827Z,9.40
2023-05-23T20:51:43.447Z,5.63
2023-05-23T20:54:10.188Z,5.87
2023-05-23T20:56:37.062Z,5.40
2023-05-23T20:59:03.871Z,5.67
2023-05-23T21:01:31.149Z,6.80
2023-05-23T21:03:58.080Z,9.30
2023-05-23T21:06:24.820Z,6.73
2023-05-23T21:08:51.695Z,6.20
2023-05-23T21:11:18.508Z,7.80
2023-05-23T21:13:46.581Z,12.23
2023-05-23T21:16:14.739Z,5.33
2023-05-23T21:18:41.873Z,13.70
2023-05-23T21:21:08.616Z,12.10
2023-05-23T21:23:35.763Z,11.33
2023-05-23T21:26:02.771Z,22.43
2023-05-23T21:28:29.537Z,16.37
2023-05-23T21:30:56.774Z,8.83
2023-05-23T21:33:23.588Z,11.67
2023-05-23T21:35:51.148Z,6.60
2023-05-23T21:38:17.995Z,10.50
2023-05-23T21:40:45.002Z,9.23
2023-05-23T21:43:11.845Z,10.20
2023-05-23T21:45:38.590Z,6.60
2023-05-23T21:48:05.522Z,9.37
2023-05-23T21:50:32.348Z,7.77
2023-05-23T21:52:59.170Z,9.53
2023-05-23T21:55:27.411Z,8.53
2023-05-23T21:57:57.249Z,8.63
2023-05-23T22:00:24.057Z,6.03
2023-05-23T22:02:50.926Z,7.47
2023-05-23T22:05:17.753Z,5.43
2023-05-23T22:07:44.602Z,5.60
2023-05-23T22:10:11.837Z,8.80
2023-05-23T22:12:38.919Z,11.77
2023-05-23T22:15:08.383Z,11.97
2023-05-23T22:17:35.340Z,7.60
2023-05-23T22:20:05.401Z,8.20
2023-05-23T22:22:32.254Z,7.50
2023-05-23T22:24:59.051Z,6.43
2023-05-23T22:27:25.907Z,6.00
2023-05-23T22:29:52.758Z,6.60
2023-05-23T22:32:19.495Z,6.87
2023-05-23T22:34:46.363Z,6.53
2023-05-23T22:37:13.087Z,14.70
2023-05-23T22:39:39.803Z,6.57
2023-05-23T22:42:06.586Z,8.40
2023-05-23T22:44:33.481Z,9.03
2023-05-23T22:47:00.340Z,7.87
2023-05-23T22:49:30.212Z,12.20
2023-05-23T22:51:57.807Z,13.27
2023-05-23T22:54:24.507Z,13.80
2023-05-23T22:56:51.317Z,17.80
2023-05-23T22:59:18.014Z,11.53
2023-05-23T23:01:44.852Z,10.97
2023-05-23T23:04:12.205Z,10.90
2023-05-23T23:06:39.032Z,17.83
2023-05-23T23:09:05.934Z,12.40
2023-05-23T23:11:32.720Z,12.17
2023-05-23T23:14:00.148Z,11.20
2023-05-23T23:16:27.191Z,12.50
2023-05-23T23:18:53.974Z,8.07
2023-05-23T23:21:21.174Z,15.33
2023-05-23T23:23:47.974Z,10.33
2023-05-23T23:26:14.665Z,13.10
2023-05-23T23:28:41.478Z,10.80
2023-05-23T23:31:08.329Z,7.97
2023-05-23T23:33:35.186Z,8.57
2023-05-23T23:36:02.122Z,7.13
2023-05-23T23:38:28.888Z,7.53
2023-05-23T23:40:55.659Z,11.10
2023-05-23T23:43:22.674Z,6.97
2023-05-23T23:45:49.417Z,15.17
2023-05-23T23:48:16.238Z,11.37
2023-05-23T23:50:43.320Z,14.33
2023-05-23T23:53:10.298Z,11.57
2023-05-23T23:55:37.064Z,12.57
2023-05-23T23:58:03.880Z,13.80
